Time;durP1;ratioP1;P1;durP2;ratioP2;P2;SDS_P1;SDS_P2;PMS_P1;PMS_P2;Temp;Humidity;BMP_temperature;BMP_pressure;BME280_temperature;BME280_humidity;BME280_pressure;Samples;Min_cycle;Max_cycle;Signal;HPM_P1;HPM_P2
2022/01/06 00:00:12;;;;;;;28.80;11.93;;;5.60;99.90;;;;;;5011243;28;20018;-85
2022/01/06 00:02:38;;;;;;;16.65;7.03;;;5.60;99.90;;;;;;5011246;28;20030;-87
2022/01/06 00:05:05;;;;;;;15.85;6.35;;;5.60;99.90;;;;;;5010932;28;20056;-85
2022/01/06 00:07:31;;;;;;;16.27;6.28;;;5.60;99.90;;;;;;4993500;28;20053;-85
2022/01/06 00:09:57;;;;;;;17.42;7.35;;;5.50;99.90;;;;;;5011331;28;20034;-85
2022/01/06 00:12:30;;;;;;;21.20;7.00;;;5.50;99.90;;;;;;5010712;28;20116;-85
2022/01/06 00:15:04;;;;;;;19.55;7.47;;;5.50;99.90;;;;;;4992016;28;20023;-85
2022/01/06 00:17:43;;;;;;;19.70;7.70;;;5.40;99.90;;;;;;5011268;28;20368;-85
2022/01/06 00:25:38;;;;;;;22.13;8.38;;;5.30;99.90;;;;;;5010795;28;20058;-85
2022/01/06 00:28:04;;;;;;;16.25;7.97;;;5.20;99.90;;;;;;4992903;28;20498;-87
2022/01/06 00:30:29;;;;;;;23.15;10.00;;;5.20;99.90;;;;;;5010561;28;20045;-85
2022/01/06 00:32:55;;;;;;;25.00;11.63;;;5.10;99.90;;;;;;5010461;28;20022;-87
2022/01/06 00:35:24;;;;;;;20.73;12.43;;;5.10;99.90;;;;;;5010122;28;20446;-85
2022/01/06 00:37:50;;;;;;;21.98;10.10;;;5.00;99.90;;;;;;5004261;28;20068;-85
2022/01/06 00:40:15;;;;;;;18.17;6.95;;;5.00;99.90;;;;;;5010278;28;20030;-85
2022/01/06 00:42:42;;;;;;;13.75;6.78;;;4.90;99.90;;;;;;5010516;28;20022;-85
2022/01/06 00:45:08;;;;;;;19.33;7.75;;;4.90;99.90;;;;;;4989130;28;20057;-85
2022/01/06 00:47:34;;;;;;;20.23;9.43;;;4.90;99.90;;;;;;5024915;28;20022;-85
2022/01/06 00:50:00;;;;;;;25.33;9.00;;;4.90;99.90;;;;;;5021602;28;20425;-87
2022/01/06 00:52:25;;;;;;;19.17;8.75;;;4.80;99.90;;;;;;5029188;28;20169;-87
2022/01/06 00:54:51;;;;;;;18.58;8.25;;;4.80;99.90;;;;;;5029433;28;20462;-87
2022/01/06 00:57:19;;;;;;;18.02;7.38;;;4.70;99.90;;;;;;5029646;28;20482;-85
2022/01/06 00:59:45;;;;;;;16.92;6.85;;;4.70;99.90;;;;;;5029106;28;20060;-85
2022/01/06 01:02:11;;;;;;;13.85;5.32;;;4.60;99.90;;;;;;5029324;28;20056;-84
2022/01/06 01:04:36;;;;;;;16.75;5.88;;;4.60;99.90;;;;;;5029096;28;20033;-85
2022/01/06 01:07:02;;;;;;;11.27;5.22;;;4.60;99.90;;;;;;5028745;28;20032;-85
2022/01/06 01:09:30;;;;;;;11.30;4.65;;;4.60;99.90;;;;;;5029310;28;20025;-84
2022/01/06 01:11:56;;;;;;;15.57;6.85;;;4.60;99.90;;;;;;5011528;28;20045;-87
2022/01/06 01:14:30;;;;;;;11.80;5.82;;;4.60;99.90;;;;;;5011296;28;20025;-85
2022/01/06 01:16:58;;;;;;;15.00;6.70;;;4.50;99.90;;;;;;5028946;28;20025;-85
2022/01/06 01:19:25;;;;;;;12.80;5.70;;;4.50;99.90;;;;;;5011661;28;20443;-85
2022/01/06 01:21:52;;;;;;;10.63;4.70;;;4.40;99.90;;;;;;5028389;28;20112;-85
2022/01/06 01:24:18;;;;;;;14.40;5.50;;;4.40;99.90;;;;;;5029114;28;20021;-85
2022/01/06 01:26:44;;;;;;;14.00;5.03;;;4.40;99.90;;;;;;5029145;28;20079;-85
2022/01/06 01:29:16;;;;;;;17.05;4.90;;;4.40;99.90;;;;;;5011489;28;20064;-86
2022/01/06 01:31:46;;;;;;;11.35;5.30;;;4.30;99.90;;;;;;5028923;28;20037;-85
2022/01/06 01:34:13;;;;;;;18.25;5.95;;;4.30;99.90;;;;;;5028927;28;20018;-85
2022/01/06 01:36:39;;;;;;;15.35;6.30;;;4.30;99.90;;;;;;5028683;28;20026;-85
2022/01/06 01:39:06;;;;;;;17.02;6.57;;;4.30;99.90;;;;;;5029219;28;20032;-85
2022/01/06 01:41:32;;;;;;;13.57;5.85;;;4.20;99.90;;;;;;5029049;28;20053;-85
2022/01/06 01:43:58;;;;;;;16.63;5.88;;;4.20;99.90;;;;;;5029061;28;20180;-85
2022/01/06 01:46:31;;;;;;;16.75;6.35;;;4.10;99.90;;;;;;5028958;28;20024;-85
2022/01/06 01:51:44;;;;;;;17.63;7.72;;;4.10;99.90;;;;;;5030119;28;20077;-87
2022/01/06 01:54:09;;;;;;;21.45;8.02;;;4.10;99.90;;;;;;5032608;28;20022;-85
2022/01/06 01:56:36;;;;;;;22.95;9.43;;;4.10;99.90;;;;;;5014752;28;20034;-87
2022/01/06 01:59:02;;;;;;;21.02;8.48;;;4.10;99.90;;;;;;5032694;28;20025;-85
2022/01/06 02:01:28;;;;;;;27.23;9.52;;;4.20;99.90;;;;;;5032866;28;20474;-85
2022/01/06 02:03:53;;;;;;;27.30;9.27;;;4.10;99.90;;;;;;5032694;28;20105;-87
2022/01/06 02:06:20;;;;;;;28.50;11.70;;;4.10;99.90;;;;;;5032424;28;20052;-85
2022/01/06 02:08:46;;;;;;;30.80;12.13;;;4.00;99.90;;;;;;5032627;28;20079;-85
2022/01/06 02:11:12;;;;;;;25.38;11.18;;;4.00;99.90;;;;;;5032645;28;20075;-85
2022/01/06 02:13:48;;;;;;;24.85;10.40;;;4.00;99.90;;;;;;5032907;28;20021;-84
2022/01/06 02:16:19;;;;;;;20.83;9.20;;;3.90;99.90;;;;;;5032347;28;20050;-87
2022/01/06 02:18:44;;;;;;;30.08;10.05;;;3.90;99.90;;;;;;5014516;28;20128;-86
2022/01/06 02:21:10;;;;;;;24.95;8.90;;;3.90;99.90;;;;;;5032150;28;20513;-87
2022/01/06 02:23:35;;;;;;;23.00;7.15;;;3.80;99.90;;;;;;5032419;28;20041;-85
2022/01/06 02:26:01;;;;;;;16.80;6.63;;;3.90;99.90;;;;;;5032123;28;20030;-85
2022/01/06 02:28:27;;;;;;;16.77;5.60;;;3.90;99.90;;;;;;5032188;28;20028;-84
2022/01/06 02:30:55;;;;;;;15.77;5.32;;;3.90;99.90;;;;;;5031916;28;20037;-85
2022/01/06 02:33:21;;;;;;;14.55;4.70;;;3.90;99.90;;;;;;5014227;28;20148;-85
2022/01/06 02:35:48;;;;;;;12.57;4.93;;;3.90;99.90;;;;;;5031550;28;20065;-85
2022/01/06 02:38:15;;;;;;;14.63;5.03;;;3.90;99.90;;;;;;5031672;28;20032;-85
2022/01/06 02:40:40;;;;;;;14.60;4.38;;;3.90;99.90;;;;;;5013883;28;20025;-84
2022/01/06 02:43:07;;;;;;;11.48;4.30;;;3.90;99.90;;;;;;5014169;28;20486;-85
2022/01/06 02:45:35;;;;;;;12.30;4.20;;;3.80;99.90;;;;;;5032182;28;20368;-85
2022/01/06 02:48:08;;;;;;;11.13;4.40;;;3.90;99.90;;;;;;5031781;28;20037;-88
2022/01/06 02:50:38;;;;;;;9.23;3.97;;;3.80;99.90;;;;;;5013371;28;20049;-85
2022/01/06 02:53:09;;;;;;;11.27;4.32;;;3.80;99.90;;;;;;5031428;28;20029;-87
2022/01/06 02:55:37;;;;;;;15.13;5.60;;;3.70;99.90;;;;;;5013868;28;20026;-85
2022/01/06 02:58:03;;;;;;;30.55;10.95;;;3.70;99.90;;;;;;5031434;28;20399;-87
2022/01/06 03:00:29;;;;;;;31.52;9.43;;;3.70;99.90;;;;;;5031367;28;20355;-86
2022/01/06 03:02:55;;;;;;;30.70;8.05;;;3.80;99.90;;;;;;5031117;28;20040;-85
2022/01/06 03:05:21;;;;;;;21.38;6.30;;;3.70;99.90;;;;;;5031724;28;20021;-87
2022/01/06 03:07:47;;;;;;;14.63;5.55;;;3.70;99.90;;;;;;5013739;28;20090;-87
2022/01/06 03:10:15;;;;;;;15.15;5.72;;;3.70;99.90;;;;;;5031645;28;20056;-85
2022/01/06 03:12:43;;;;;;;20.60;6.20;;;3.60;99.90;;;;;;5031989;28;20511;-86
2022/01/06 03:15:21;;;;;;;22.83;7.70;;;3.60;99.90;;;;;;5031436;28;20057;-85
2022/01/06 03:17:52;;;;;;;21.85;8.63;;;3.60;99.90;;;;;;5031283;28;20025;-85
2022/01/06 03:20:21;;;;;;;21.45;7.82;;;3.60;99.90;;;;;;5030930;28;20025;-87
2022/01/06 03:22:47;;;;;;;21.17;8.80;;;3.60;99.90;;;;;;5031642;28;20026;-85
2022/01/06 03:25:13;;;;;;;21.63;8.75;;;3.60;99.90;;;;;;5031460;28;20101;-87
2022/01/06 03:27:41;;;;;;;21.75;8.48;;;3.60;99.90;;;;;;5031151;28;20386;-85
2022/01/06 03:30:09;;;;;;;16.42;7.30;;;3.50;99.90;;;;;;5030996;28;20441;-85
2022/01/06 03:32:35;;;;;;;17.88;7.25;;;3.60;99.90;;;;;;5031018;28;20028;-85
2022/01/06 03:35:01;;;;;;;18.05;7.63;;;3.60;99.90;;;;;;5012929;28;20033;-85
2022/01/06 03:37:27;;;;;;;20.52;8.43;;;3.50;99.90;;;;;;5013040;28;20390;-85
2022/01/06 03:39:53;;;;;;;16.58;6.55;;;3.40;99.90;;;;;;5030609;28;20033;-85
2022/01/06 03:42:18;;;;;;;16.42;6.70;;;3.40;99.90;;;;;;5030833;28;20025;-85
2022/01/06 03:44:44;;;;;;;19.50;6.88;;;3.50;99.90;;;;;;5012796;28;20034;-85
2022/01/06 03:47:11;;;;;;;16.88;5.97;;;3.40;99.90;;;;;;5013139;28;20029;-86
2022/01/06 03:49:37;;;;;;;17.15;6.43;;;3.40;99.90;;;;;;5030436;28;20357;-85
2022/01/06 03:52:03;;;;;;;16.15;6.57;;;3.40;99.90;;;;;;5030509;28;20257;-85
2022/01/06 03:54:29;;;;;;;14.07;5.47;;;3.40;99.90;;;;;;5013004;28;20026;-86
2022/01/06 03:56:54;;;;;;;10.93;4.93;;;3.30;99.90;;;;;;5030309;28;20087;-85
2022/01/06 03:59:20;;;;;;;10.10;5.20;;;3.30;99.90;;;;;;5012622;28;20040;-85
2022/01/06 04:01:46;;;;;;;13.48;5.00;;;3.30;99.90;;;;;;5030226;28;20021;-85
2022/01/06 04:04:13;;;;;;;10.52;5.13;;;3.30;99.90;;;;;;5030723;28;20405;-85
2022/01/06 04:06:42;;;;;;;11.82;5.35;;;3.20;99.90;;;;;;5030066;28;20028;-86
2022/01/06 04:09:08;;;;;;;12.98;5.50;;;3.30;99.90;;;;;;5030285;28;20390;-85
2022/01/06 04:11:34;;;;;;;14.73;5.95;;;3.20;99.90;;;;;;5030431;28;20037;-85
2022/01/06 04:13:59;;;;;;;15.55;6.35;;;3.20;99.90;;;;;;5029850;28;20405;-84
2022/01/06 04:16:27;;;;;;;12.45;6.30;;;3.10;99.90;;;;;;5017241;28;20026;-85
2022/01/06 04:18:52;;;;;;;18.77;6.78;;;3.20;99.90;;;;;;5030056;28;20049;-85
2022/01/06 04:21:18;;;;;;;18.88;7.60;;;3.20;99.90;;;;;;5029564;28;20049;-85
2022/01/06 04:23:47;;;;;;;17.20;6.78;;;3.20;99.90;;;;;;5012190;28;20025;-85
2022/01/06 04:26:16;;;;;;;18.63;6.90;;;3.10;99.90;;;;;;5029981;28;20029;-85
2022/01/06 04:28:42;;;;;;;19.77;8.23;;;3.20;99.90;;;;;;5029993;28;20022;-85
2022/01/06 04:31:09;;;;;;;16.38;6.35;;;3.20;99.90;;;;;;5030028;28;20539;-85
2022/01/06 04:33:34;;;;;;;19.75;8.50;;;3.20;99.90;;;;;;5029924;28;20370;-85
2022/01/06 04:36:02;;;;;;;21.40;8.60;;;3.10;99.90;;;;;;5029527;28;20026;-85
2022/01/06 04:38:27;;;;;;;20.38;8.40;;;3.20;99.90;;;;;;5011845;28;20021;-85
2022/01/06 04:40:53;;;;;;;21.05;8.65;;;3.20;99.90;;;;;;5029487;28;20033;-87
2022/01/06 04:43:19;;;;;;;18.95;7.57;;;3.20;99.90;;;;;;5029452;28;20100;-85
2022/01/06 04:45:45;;;;;;;20.77;7.40;;;3.20;99.90;;;;;;5029489;28;20494;-85
2022/01/06 04:48:11;;;;;;;20.23;8.90;;;3.20;99.90;;;;;;5029653;28;20026;-88
2022/01/06 04:50:37;;;;;;;20.50;8.77;;;3.20;99.90;;;;;;5011251;28;20051;-88
2022/01/06 04:53:03;;;;;;;20.92;8.57;;;3.20;99.90;;;;;;5029920;28;20021;-86
2022/01/06 04:55:29;;;;;;;25.73;8.70;;;3.20;99.90;;;;;;5029451;28;20112;-85
2022/01/06 04:57:54;;;;;;;24.33;8.93;;;3.20;99.90;;;;;;5029381;28;20057;-85
2022/01/06 05:00:20;;;;;;;24.67;10.20;;;3.30;99.90;;;;;;5029323;28;20482;-86
2022/01/06 05:02:46;;;;;;;26.27;10.20;;;3.30;99.90;;;;;;5029177;28;20025;-85
2022/01/06 05:05:15;;;;;;;23.40;9.10;;;3.20;99.90;;;;;;5028919;28;20025;-85
2022/01/06 05:07:41;;;;;;;22.90;9.45;;;3.20;99.90;;;;;;5029168;28;20025;-85
2022/01/06 05:10:08;;;;;;;27.40;10.45;;;3.30;99.90;;;;;;5029026;28;20116;-85
2022/01/06 05:12:38;;;;;;;25.40;10.25;;;3.30;99.90;;;;;;5029331;28;20405;-85
2022/01/06 05:15:05;;;;;;;29.00;11.30;;;3.30;99.90;;;;;;5011537;28;20544;-85
2022/01/06 05:17:31;;;;;;;27.42;10.43;;;3.40;99.90;;;;;;5029108;28;20075;-85
2022/01/06 05:19:57;;;;;;;24.88;10.27;;;3.40;99.90;;;;;;5010965;28;20075;-85
2022/01/06 05:22:23;;;;;;;24.92;9.35;;;3.50;99.90;;;;;;5029265;28;20025;-85
2022/01/06 05:24:48;;;;;;;19.98;7.97;;;3.60;99.90;;;;;;5028788;28;20064;-85
2022/01/06 05:27:14;;;;;;;17.85;7.72;;;3.60;99.90;;;;;;5029033;28;20057;-85
2022/01/06 05:29:40;;;;;;;22.42;7.38;;;3.60;99.90;;;;;;5028956;28;20032;-85
2022/01/06 05:32:05;;;;;;;18.20;7.55;;;3.60;99.90;;;;;;5011512;28;20033;-85
2022/01/06 05:34:31;;;;;;;16.10;6.78;;;3.70;99.90;;;;;;5003926;28;20101;-85
2022/01/06 05:36:57;;;;;;;16.25;6.03;;;3.80;99.90;;;;;;5009871;28;20034;-86
2022/01/06 05:39:23;;;;;;;14.20;5.35;;;3.80;99.90;;;;;;5010236;28;20022;-86
2022/01/06 05:41:48;;;;;;;14.60;5.05;;;3.80;99.90;;;;;;5010019;28;20098;-86
2022/01/06 05:44:14;;;;;;;13.40;5.25;;;3.80;99.90;;;;;;5009643;28;20030;-86
2022/01/06 05:46:40;;;;;;;10.93;5.45;;;3.80;99.90;;;;;;5009954;28;20018;-85
2022/01/06 05:49:08;;;;;;;11.15;5.13;;;3.80;99.90;;;;;;5009728;28;20096;-85
2022/01/06 05:51:34;;;;;;;14.48;5.30;;;3.70;99.90;;;;;;5009686;28;20026;-85
2022/01/06 05:53:59;;;;;;;11.55;4.75;;;3.50;99.90;;;;;;4988439;28;20057;-85
2022/01/06 05:56:27;;;;;;;11.40;5.07;;;3.50;99.90;;;;;;5007600;28;20081;-85
2022/01/06 05:58:53;;;;;;;13.25;4.88;;;3.50;99.90;;;;;;5009821;28;20041;-85
2022/01/06 06:01:18;;;;;;;11.93;4.78;;;3.50;99.90;;;;;;5009464;28;20026;-85
2022/01/06 06:03:44;;;;;;;13.63;6.20;;;3.40;99.90;;;;;;5007564;28;20065;-85
2022/01/06 06:06:10;;;;;;;12.02;5.75;;;3.40;99.90;;;;;;5007465;28;20528;-85
2022/01/06 06:08:36;;;;;;;15.35;6.00;;;3.40;99.90;;;;;;5007771;28;20499;-85
2022/01/06 06:11:02;;;;;;;12.80;5.63;;;3.30;99.90;;;;;;5007677;28;20518;-85
2022/01/06 06:13:27;;;;;;;12.25;6.10;;;3.20;99.90;;;;;;5009729;28;20026;-86
2022/01/06 06:15:53;;;;;;;14.27;5.80;;;3.20;99.90;;;;;;5009270;28;20048;-86
2022/01/06 06:18:19;;;;;;;17.95;5.85;;;3.10;99.90;;;;;;5009662;28;20030;-86
2022/01/06 06:20:44;;;;;;;18.35;7.28;;;3.00;99.90;;;;;;5008935;28;20026;-86
2022/01/06 06:23:10;;;;;;;18.83;6.50;;;3.00;99.90;;;;;;5009385;28;20088;-86
2022/01/06 06:25:36;;;;;;;17.05;6.95;;;2.90;99.90;;;;;;5009279;28;20196;-86
2022/01/06 06:28:01;;;;;;;15.65;6.68;;;2.90;99.90;;;;;;5007737;28;20036;-86
2022/01/06 06:30:27;;;;;;;18.95;7.90;;;2.90;99.90;;;;;;5007614;28;20549;-86
2022/01/06 06:32:53;;;;;;;16.73;7.75;;;2.80;99.90;;;;;;5002945;28;20037;-86
2022/01/06 06:35:19;;;;;;;21.20;7.72;;;2.90;99.90;;;;;;5009027;28;20096;-86
2022/01/06 06:37:44;;;;;;;17.25;8.00;;;2.80;99.90;;;;;;5010926;28;20026;-86
2022/01/06 06:40:11;;;;;;;17.45;8.52;;;2.80;99.90;;;;;;5012653;28;20076;-86
2022/01/06 06:42:37;;;;;;;18.63;8.18;;;2.80;99.90;;;;;;5012715;28;20030;-86
2022/01/06 06:45:03;;;;;;;18.23;8.20;;;2.80;99.90;;;;;;4995114;28;20067;-86
2022/01/06 06:47:29;;;;;;;21.98;9.35;;;2.70;99.90;;;;;;5012691;28;20053;-86
2022/01/06 06:49:56;;;;;;;16.23;10.10;;;2.70;99.90;;;;;;5011980;28;20104;-86
2022/01/06 06:52:22;;;;;;;20.65;13.02;;;2.80;99.90;;;;;;5012820;28;20030;-86
2022/01/06 06:54:48;;;;;;;24.23;14.00;;;2.80;99.90;;;;;;5012685;28;20109;-86
2022/01/06 06:57:14;;;;;;;20.73;12.45;;;2.80;99.90;;;;;;5012532;28;20073;-86
2022/01/06 06:59:39;;;;;;;22.13;10.75;;;2.80;99.90;;;;;;5012541;28;20458;-86
2022/01/06 07:02:05;;;;;;;24.33;10.57;;;2.70;99.90;;;;;;5012396;28;20061;-86
2022/01/06 07:04:31;;;;;;;23.55;11.63;;;2.70;99.90;;;;;;5012123;28;20026;-86
2022/01/06 07:06:57;;;;;;;23.50;12.70;;;2.60;99.90;;;;;;5011863;28;20647;-86
2022/01/06 07:09:22;;;;;;;56.35;26.58;;;2.60;99.90;;;;;;4994003;28;20033;-86
2022/01/06 07:11:48;;;;;;;70.05;34.50;;;2.60;99.90;;;;;;5012165;28;20034;-86
2022/01/06 07:14:14;;;;;;;47.55;23.33;;;2.50;99.90;;;;;;4994859;28;20026;-86
2022/01/06 07:16:39;;;;;;;68.60;34.78;;;2.50;99.90;;;;;;5011983;28;20109;-86
2022/01/06 07:19:05;;;;;;;60.25;30.25;;;2.40;99.90;;;;;;5012548;28;20208;-86
2022/01/06 07:21:30;;;;;;;75.50;37.40;;;2.40;99.90;;;;;;5011770;28;20433;-86
2022/01/06 07:23:56;;;;;;;67.70;33.80;;;2.50;99.90;;;;;;5011754;28;20446;-86
2022/01/06 07:26:22;;;;;;;55.33;26.85;;;2.50;99.90;;;;;;5012159;28;20028;-86
2022/01/06 07:28:48;;;;;;;30.83;11.73;;;2.50;99.90;;;;;;5011815;28;20493;-86
2022/01/06 07:31:13;;;;;;;26.63;9.38;;;2.50;99.90;;;;;;5011691;28;20509;-86
2022/01/06 07:33:39;;;;;;;24.88;9.80;;;2.60;99.90;;;;;;5013126;28;20021;-86
2022/01/06 07:36:05;;;;;;;23.65;10.38;;;2.50;99.90;;;;;;5012211;28;20025;-86
2022/01/06 07:38:30;;;;;;;26.05;10.15;;;2.50;99.90;;;;;;5013152;28;20022;-86
2022/01/06 07:40:56;;;;;;;21.88;9.95;;;2.50;99.90;;;;;;5004640;28;20552;-86
2022/01/06 07:43:23;;;;;;;33.22;14.82;;;2.50;99.90;;;;;;5010321;28;20379;-86
2022/01/06 07:45:49;;;;;;;36.17;15.07;;;2.50;99.90;;;;;;5011128;28;20017;-86
2022/01/06 07:48:17;;;;;;;45.50;21.50;;;2.50;99.90;;;;;;5010082;28;20037;-86
2022/01/06 07:50:45;;;;;;;46.67;22.80;;;2.50;99.90;;;;;;4992642;28;20046;-86
2022/01/06 07:53:11;;;;;;;52.90;22.13;;;2.40;99.90;;;;;;5012140;28;20109;-86
2022/01/06 07:55:37;;;;;;;47.10;21.52;;;2.40;99.90;;;;;;5010974;28;20093;-86
2022/01/06 07:58:03;;;;;;;51.83;23.52;;;2.40;99.90;;;;;;5010652;28;20243;-85
2022/01/06 08:00:29;;;;;;;107.97;49.72;;;2.40;99.90;;;;;;5011112;28;20602;-85
2022/01/06 08:02:55;;;;;;;252.45;118.45;;;2.40;99.90;;;;;;5011246;28;20097;-84
2022/01/06 08:05:24;;;;;;;339.50;161.93;;;2.40;99.90;;;;;;5010126;28;20030;-86
2022/01/06 08:07:50;;;;;;;243.07;110.82;;;2.40;99.90;;;;;;5009985;28;20072;-85
2022/01/06 08:10:18;;;;;;;149.77;70.15;;;2.40;99.90;;;;;;5011013;28;20034;-86
2022/01/06 08:12:44;;;;;;;134.13;63.85;;;2.40;99.90;;;;;;5010715;28;20029;-85
2022/01/06 08:15:10;;;;;;;158.57;76.13;;;2.60;99.90;;;;;;4992508;28;20190;-85
2022/01/06 08:17:36;;;;;;;175.65;87.40;;;2.60;99.90;;;;;;5010382;28;20037;-85
2022/01/06 08:20:07;;;;;;;161.95;82.60;;;2.60;99.90;;;;;;4991713;28;20392;-85
2022/01/06 08:22:33;;;;;;;149.93;76.82;;;2.70;99.90;;;;;;5009599;28;20030;-89
2022/01/06 08:24:59;;;;;;;155.95;83.40;;;2.80;99.90;;;;;;4991892;28;20030;-89
2022/01/06 08:27:25;;;;;;;142.40;74.55;;;2.90;99.90;;;;;;4998089;28;20575;-89
2022/01/06 08:29:54;;;;;;;105.03;55.25;;;2.90;99.90;;;;;;5008247;28;20022;-88
2022/01/06 08:32:20;;;;;;;96.72;50.17;;;3.00;99.90;;;;;;5010414;28;20054;-88
2022/01/06 08:34:46;;;;;;;100.72;48.95;;;3.00;99.90;;;;;;5004105;28;20060;-89
2022/01/06 08:37:12;;;;;;;78.28;41.72;;;3.10;99.90;;;;;;5008060;28;20052;-89
2022/01/06 08:39:39;;;;;;;70.15;36.47;;;3.20;99.90;;;;;;5008361;28;20088;-89
2022/01/06 08:42:05;;;;;;;72.53;37.90;;;3.20;99.90;;;;;;4992836;28;20168;-88
2022/01/06 08:44:31;;;;;;;61.67;32.95;;;3.30;99.90;;;;;;4989969;28;20033;-89
2022/01/06 08:46:59;;;;;;;55.22;30.00;;;3.40;99.90;;;;;;4989370;28;20039;-89
2022/01/06 08:49:25;;;;;;;50.40;28.42;;;3.50;99.90;;;;;;4989590;28;20574;-88
2022/01/06 08:51:51;;;;;;;53.42;28.40;;;3.50;99.90;;;;;;4989297;28;20061;-88
2022/01/06 08:54:17;;;;;;;43.03;24.00;;;3.70;99.90;;;;;;4989379;28;20068;-89
2022/01/06 08:56:44;;;;;;;45.63;22.42;;;3.80;99.90;;;;;;5001966;28;20454;-88
2022/01/06 08:59:09;;;;;;;41.78;21.98;;;4.00;99.90;;;;;;4992123;28;20025;-88
2022/01/06 09:01:36;;;;;;;40.13;20.83;;;4.10;99.90;;;;;;4992157;28;20033;-88
2022/01/06 09:04:02;;;;;;;38.70;19.45;;;4.20;99.90;;;;;;4988904;28;20376;-88
2022/01/06 09:06:28;;;;;;;37.90;19.23;;;4.30;99.90;;;;;;4990863;28;20029;-88
2022/01/06 09:08:53;;;;;;;30.67;17.08;;;4.40;99.90;;;;;;5009874;28;20367;-89
2022/01/06 09:11:19;;;;;;;33.20;16.23;;;4.50;99.90;;;;;;5024014;28;20073;-89
2022/01/06 09:13:45;;;;;;;31.85;15.05;;;4.60;99.90;;;;;;5009978;28;20018;-88
2022/01/06 09:16:11;;;;;;;32.70;12.80;;;4.80;99.90;;;;;;5009047;28;20032;-89
2022/01/06 09:18:38;;;;;;;27.88;11.95;;;4.90;99.90;;;;;;5007464;28;20113;-88
2022/01/06 09:21:05;;;;;;;26.98;11.35;;;5.00;99.90;;;;;;5007208;28;20030;-88
2022/01/06 09:23:31;;;;;;;26.15;10.85;;;5.10;99.90;;;;;;4978141;28;20022;-88
2022/01/06 09:25:57;;;;;;;29.83;12.05;;;5.20;99.90;;;;;;4989115;28;20036;-89
2022/01/06 09:28:22;;;;;;;24.85;10.52;;;5.40;99.90;;;;;;5009868;28;20067;-89
2022/01/06 09:30:51;;;;;;;21.67;9.90;;;5.60;99.90;;;;;;4993228;28;20532;-88
2022/01/06 09:33:18;;;;;;;23.88;8.65;;;5.80;99.90;;;;;;4993625;28;20170;-88
2022/01/06 09:35:45;;;;;;;17.85;8.57;;;6.00;99.90;;;;;;5009193;28;20522;-88
2022/01/06 09:38:11;;;;;;;15.05;7.43;;;6.10;99.90;;;;;;5009058;28;20064;-89
2022/01/06 09:40:39;;;;;;;16.25;6.78;;;6.20;99.90;;;;;;5009387;28;20030;-88
2022/01/06 09:43:05;;;;;;;17.98;7.28;;;6.40;99.90;;;;;;5009421;28;20573;-89
2022/01/06 09:45:32;;;;;;;17.25;6.50;;;6.60;99.90;;;;;;5009854;28;20125;-88
2022/01/06 09:47:58;;;;;;;16.67;6.35;;;6.70;99.90;;;;;;5008943;28;20041;-88
2022/01/06 09:50:24;;;;;;;12.02;5.57;;;6.80;99.90;;;;;;5006429;28;20049;-88
2022/01/06 09:52:51;;;;;;;16.73;6.15;;;6.80;99.90;;;;;;5008860;28;20046;-88
2022/01/06 09:55:17;;;;;;;22.23;9.95;;;6.80;99.90;;;;;;5009071;28;20044;-88
2022/01/06 09:58:01;;;;;;;18.23;8.77;;;6.80;99.90;;;;;;5008863;28;20494;-88
2022/01/06 10:00:32;;;;;;;17.17;6.18;;;6.90;99.90;;;;;;4992070;28;20049;-88
2022/01/06 10:03:03;;;;;;;16.48;6.72;;;6.90;99.90;;;;;;5008934;28;20041;-88
2022/01/06 10:05:46;;;;;;;13.38;6.25;;;6.90;99.90;;;;;;5008936;28;20032;-88
2022/01/06 10:08:13;;;;;;;18.88;7.32;;;6.90;99.90;;;;;;5008610;28;20026;-88
2022/01/06 10:10:40;;;;;;;15.25;5.80;;;6.90;99.90;;;;;;5009024;28;20030;-88
2022/01/06 10:13:08;;;;;;;18.20;5.70;;;6.90;99.90;;;;;;5011141;28;20026;-88
2022/01/06 10:15:39;;;;;;;16.70;5.35;;;7.00;99.90;;;;;;5012677;28;20264;-88
2022/01/06 10:18:30;;;;;;;11.93;4.90;;;7.00;99.90;;;;;;5012499;28;20030;-88
2022/01/06 10:20:58;;;;;;;10.95;4.57;;;7.00;99.90;;;;;;5010325;28;20060;-87
2022/01/06 10:23:24;;;;;;;11.45;4.50;;;7.10;99.90;;;;;;5012698;28;20510;-86
2022/01/06 10:25:50;;;;;;;12.95;5.40;;;7.20;99.90;;;;;;5012566;28;20022;-87
2022/01/06 10:28:21;;;;;;;15.88;5.38;;;7.20;99.90;;;;;;5011356;28;20436;-86
2022/01/06 10:30:49;;;;;;;16.65;6.05;;;7.10;99.90;;;;;;5012432;28;20037;-87
2022/01/06 10:33:20;;;;;;;18.70;5.57;;;7.20;99.90;;;;;;5012716;28;20068;-87
2022/01/06 10:35:47;;;;;;;14.43;5.35;;;7.20;99.90;;;;;;5015162;28;20515;-87
2022/01/06 10:38:12;;;;;;;13.60;5.60;;;7.00;99.90;;;;;;5010125;28;20014;-87
2022/01/06 10:40:39;;;;;;;11.52;4.70;;;7.10;99.90;;;;;;5033191;28;20522;-87
2022/01/06 10:43:06;;;;;;;9.65;3.75;;;7.20;99.90;;;;;;5033604;28;20500;-79
2022/01/06 10:45:34;;;;;;;14.43;4.63;;;7.20;99.90;;;;;;5031670;28;20386;-86
2022/01/06 10:48:02;;;;;;;13.52;3.97;;;7.30;99.90;;;;;;5031157;28;20102;-85
2022/01/06 10:50:36;;;;;;;15.30;4.80;;;7.40;99.90;;;;;;5032008;28;20037;-85
2022/01/06 10:53:04;;;;;;;13.20;4.22;;;7.40;99.90;;;;;;5035456;28;20036;-85
2022/01/06 10:55:37;;;;;;;15.27;3.92;;;7.40;99.90;;;;;;5021142;28;20021;-86
2022/01/06 10:58:20;;;;;;;10.07;3.40;;;7.40;99.90;;;;;;4991083;28;20022;-87
2022/01/06 11:00:48;;;;;;;10.55;3.33;;;7.30;99.90;;;;;;5012196;28;20017;-86
2022/01/06 11:03:15;;;;;;;14.13;4.13;;;7.40;99.90;;;;;;5012081;28;20021;-85
2022/01/06 11:05:50;;;;;;;16.65;4.28;;;7.50;99.90;;;;;;5012043;28;20026;-86
2022/01/06 11:08:43;;;;;;;11.25;4.03;;;7.60;99.90;;;;;;4991228;28;20046;-86
2022/01/06 11:13:41;;;;;;;9.48;3.88;;;7.90;99.90;;;;;;5011639;28;20527;-86
2022/01/06 11:16:08;;;;;;;13.63;4.18;;;7.90;99.90;;;;;;4990547;28;20026;-86
2022/01/06 11:18:39;;;;;;;13.55;3.78;;;8.10;99.90;;;;;;5009778;28;20087;-86
2022/01/06 11:21:06;;;;;;;19.95;5.45;;;8.00;99.90;;;;;;5011016;28;20083;-86
2022/01/06 11:23:32;;;;;;;15.88;5.05;;;8.00;99.90;;;;;;5011598;28;20037;-86
2022/01/06 11:26:21;;;;;;;24.88;6.80;;;8.10;99.90;;;;;;5011176;28;20395;-86
2022/01/06 11:28:58;;;;;;;10.60;4.38;;;8.10;99.90;;;;;;5011391;28;20036;-86
2022/01/06 11:31:27;;;;;;;16.23;4.38;;;7.80;99.90;;;;;;5011557;28;20044;-86
2022/01/06 11:33:56;;;;;;;19.38;5.45;;;7.80;99.90;;;;;;5011495;28;20017;-86
2022/01/06 11:36:31;;;;;;;12.23;4.07;;;7.70;99.90;;;;;;5010725;28;20036;-86
2022/01/06 11:39:05;;;;;;;9.45;3.25;;;7.90;99.90;;;;;;4992793;28;20037;-86
2022/01/06 11:41:41;;;;;;;14.60;3.83;;;8.10;99.90;;;;;;5011596;28;20393;-86
2022/01/06 11:44:26;;;;;;;13.60;4.00;;;8.30;99.90;;;;;;5011311;28;20509;-86
2022/01/06 11:46:55;;;;;;;7.93;3.20;;;8.30;99.90;;;;;;5012298;28;20037;-86
2022/01/06 11:49:36;;;;;;;14.45;3.53;;;8.30;99.90;;;;;;5005670;28;20049;-86
2022/01/06 11:52:10;;;;;;;14.20;3.42;;;8.30;99.90;;;;;;5003084;28;20044;-87
2022/01/06 11:54:53;;;;;;;14.40;3.95;;;8.20;99.90;;;;;;5012601;28;20453;-87
2022/01/06 11:57:37;;;;;;;11.93;3.13;;;8.00;99.90;;;;;;5029404;28;20253;-86
2022/01/06 12:00:21;;;;;;;11.70;2.85;;;8.00;99.90;;;;;;4987006;28;20026;-87
2022/01/06 12:03:00;;;;;;;12.20;3.30;;;8.00;99.90;;;;;;5010964;28;20033;-86
2022/01/06 12:05:28;;;;;;;11.57;3.08;;;8.10;99.90;;;;;;5010666;28;20416;-86
2022/01/06 12:07:54;;;;;;;8.38;2.60;;;8.10;99.90;;;;;;5010341;28;20041;-87
2022/01/06 12:10:21;;;;;;;10.50;2.75;;;8.10;99.90;;;;;;4993170;28;20057;-86
2022/01/06 12:12:50;;;;;;;8.15;2.28;;;8.10;99.90;;;;;;5010872;28;20029;-84
2022/01/06 12:15:19;;;;;;;8.65;2.20;;;8.10;99.90;;;;;;5010754;28;20483;-84
2022/01/06 12:17:52;;;;;;;8.95;1.95;;;8.30;99.90;;;;;;4989602;28;20136;-84
2022/01/06 12:20:24;;;;;;;9.82;2.17;;;8.40;99.90;;;;;;5008678;28;20029;-85
2022/01/06 12:22:51;;;;;;;9.88;1.95;;;8.40;99.90;;;;;;5010508;28;20030;-85
2022/01/06 12:25:24;;;;;;;10.40;2.30;;;8.50;99.90;;;;;;5010587;28;20026;-84
2022/01/06 12:27:53;;;;;;;11.00;2.70;;;8.50;99.90;;;;;;5010045;28;20032;-84
2022/01/06 12:30:23;;;;;;;10.98;2.72;;;8.60;99.90;;;;;;5010407;28;20550;-84
2022/01/06 12:33:01;;;;;;;8.77;2.30;;;8.70;99.90;;;;;;5010464;28;20037;-84
2022/01/06 12:35:47;;;;;;;7.03;2.50;;;8.80;99.90;;;;;;5009498;28;20022;-84
2022/01/06 12:38:14;;;;;;;8.23;1.92;;;8.70;99.90;;;;;;4992775;28;20407;-84
2022/01/06 12:40:42;;;;;;;6.43;1.58;;;8.70;99.90;;;;;;4994241;28;20152;-84
2022/01/06 12:43:28;;;;;;;7.03;1.85;;;8.70;99.90;;;;;;5025617;28;20030;-84
2022/01/06 12:46:13;;;;;;;9.63;2.15;;;8.90;99.90;;;;;;5011362;28;20025;-84
2022/01/06 12:48:46;;;;;;;13.02;2.60;;;9.00;99.90;;;;;;5029644;28;20018;-84
2022/01/06 12:51:17;;;;;;;7.47;1.50;;;9.20;99.90;;;;;;5028975;28;20053;-84
2022/01/06 12:53:45;;;;;;;7.97;2.10;;;9.30;99.90;;;;;;5029875;28;20109;-84
2022/01/06 12:56:32;;;;;;;10.07;1.73;;;9.30;99.90;;;;;;5010786;28;20045;-84
2022/01/06 12:59:12;;;;;;;5.28;1.30;;;9.30;99.90;;;;;;5011563;28;20018;-84